Time;durP1;ratioP1;P1;durP2;ratioP2;P2;SDS_P1;SDS_P2;PMS_P1;PMS_P2;Temp;Humidity;BMP_temperature;BMP_pressure;BME280_temperature;BME280_humidity;BME280_pressure;Samples;Min_cycle;Max_cycle;Signal;HPM_P1;HPM_P2
2023/09/06 00:01:08;;;;;;;6.13;3.90;;;;;;;-145.69;46.38;51731.50;5134427;27;20595;-81
2023/09/06 00:03:36;;;;;;;4.25;3.00;;;;;;;-145.69;47.02;51743.38;5133761;27;20224;-82
2023/09/06 00:06:03;;;;;;;5.65;3.30;;;;;;;-145.69;46.84;51733.50;5133996;27;20197;-80
2023/09/06 00:08:34;;;;;;;7.13;3.42;;;;;;;-145.69;47.34;51735.47;5133749;27;20349;-81
2023/09/06 00:11:04;;;;;;;4.85;3.22;;;;;;;-145.69;47.59;51733.50;5133597;27;20200;-81
2023/09/06 00:13:32;;;;;;;6.47;3.72;;;;;;;-145.69;47.28;51751.31;5133981;27;20201;-81
2023/09/06 00:16:00;;;;;;;4.97;3.45;;;;;;;-145.69;47.51;51735.47;5134095;27;20192;-81
2023/09/06 00:18:27;;;;;;;6.15;3.40;;;;;;;-145.69;47.47;51727.53;5133970;27;20200;-81
2023/09/06 00:20:54;;;;;;;5.57;3.70;;;;;;;-145.69;47.65;51739.44;5133886;27;20204;-81
2023/09/06 00:23:21;;;;;;;5.85;3.78;;;;;;;-145.69;47.86;51773.09;5133904;27;20212;-82
2023/09/06 00:25:48;;;;;;;5.60;3.50;;;;;;;-145.69;47.71;51765.16;5134102;27;20193;-81
2023/09/06 00:28:14;;;;;;;7.18;3.47;;;;;;;-145.69;47.71;51753.28;5133768;27;20261;-80
2023/09/06 00:30:44;;;;;;;22.05;3.75;;;;;;;-145.69;47.81;51763.19;5133927;27;20647;-81
2023/09/06 00:33:13;;;;;;;9.02;3.95;;;;;;;-145.69;48.01;51747.34;5133750;27;20718;-81
2023/09/06 00:35:39;;;;;;;5.97;3.90;;;;;;;-145.69;47.93;51761.22;5130580;27;20200;-81
2023/09/06 00:38:06;;;;;;;6.57;3.60;;;;;;;-145.69;47.85;51735.47;5133524;27;20394;-81
2023/09/06 00:40:36;;;;;;;6.85;4.00;;;;;;;-145.69;48.06;51713.69;5133982;28;20197;-81
2023/09/06 00:43:04;;;;;;;8.25;4.10;;;;;;;-145.69;47.83;51739.44;5133449;28;20264;-81
2023/09/06 00:45:37;;;;;;;5.63;3.70;;;;;;;-145.69;47.79;51741.41;5133576;27;20192;-82
2023/09/06 00:48:05;;;;;;;7.40;4.20;;;;;;;-145.69;47.98;51755.25;5133430;27;20208;-82
2023/09/06 00:50:35;;;;;;;7.88;4.53;;;;;;;-145.69;47.96;51775.06;5136088;27;20287;-81
2023/09/06 00:53:04;;;;;;;6.97;4.18;;;;;;;-145.69;49.69;51737.44;5137828;27;20655;-81
2023/09/06 00:55:30;;;;;;;7.78;3.83;;;;;;;-145.69;50.50;51743.38;5136754;27;20196;-82
2023/09/06 00:57:57;;;;;;;6.13;4.03;;;;;;;-145.69;50.99;51739.44;5137986;27;20208;-81
2023/09/06 01:00:24;;;;;;;6.88;4.18;;;;;;;-145.69;50.95;51751.31;5136826;27;20226;-82
2023/09/06 01:02:51;;;;;;;7.78;4.95;;;;;;;-145.69;51.71;51788.94;5137559;27;20225;-81
2023/09/06 01:05:19;;;;;;;7.85;4.50;;;;;;;-145.69;51.86;51775.06;5121773;27;20224;-81
2023/09/06 01:07:51;;;;;;;6.60;4.35;;;;;;;-145.69;52.75;51755.25;5126864;27;20193;-81
2023/09/06 01:10:18;;;;;;;6.70;4.28;;;;;;;-145.69;52.52;51743.38;5137432;27;20249;-80
2023/09/06 01:12:44;;;;;;;11.27;4.95;;;;;;;-145.69;52.92;51727.53;5137319;27;20559;-81
2023/09/06 01:15:12;;;;;;;9.15;4.82;;;;;;;-145.69;53.62;51763.19;5137455;27;20203;-81
2023/09/06 01:17:41;;;;;;;7.47;4.47;;;;;;;-145.69;54.41;51775.06;5137650;27;20200;-81
2023/09/06 01:20:15;;;;;;;8.48;4.53;;;;;;;-145.69;54.03;51775.06;5137150;27;20224;-80
2023/09/06 01:22:47;;;;;;;6.30;4.50;;;;;;;-145.69;54.18;51786.94;5137213;27;20720;-80
2023/09/06 01:25:16;;;;;;;9.43;4.70;;;;;;;-145.69;54.51;51743.38;5133348;27;20188;-80
2023/09/06 01:27:43;;;;;;;8.20;4.15;;;;;;;-145.69;54.55;51751.31;5137033;27;20659;-80
2023/09/06 01:30:11;;;;;;;7.05;4.50;;;;;;;-145.69;54.91;51786.94;5136927;27;20536;-80
2023/09/06 01:32:37;;;;;;;6.63;4.90;;;;;;;-145.69;55.09;51771.09;5137180;27;20767;-80
2023/09/06 01:35:07;;;;;;;10.88;4.93;;;;;;;-145.69;55.59;51790.91;5137032;27;20563;-81
2023/09/06 01:37:34;;;;;;;10.57;4.75;;;;;;;-145.69;55.99;51771.09;5137084;27;20536;-80
2023/09/06 01:40:01;;;;;;;6.43;4.47;;;;;;;-145.69;55.92;51773.09;5136478;27;20200;-80
2023/09/06 01:42:29;;;;;;;8.32;4.82;;;;;;;-145.69;56.15;51759.22;5136597;27;20251;-81
2023/09/06 01:44:55;;;;;;;7.82;4.85;;;;;;;-145.69;56.90;51777.03;5135872;28;20200;-80
2023/09/06 01:47:24;;;;;;;10.68;4.95;;;;;;;-145.69;56.17;51790.91;5135677;28;20204;-81
2023/09/06 01:49:51;;;;;;;6.93;4.35;;;;;;;-145.69;55.89;51790.91;5135620;28;20257;-81
2023/09/06 01:52:17;;;;;;;11.15;5.07;;;;;;;-145.69;56.04;51806.75;5134984;27;20203;-80
2023/09/06 01:54:45;;;;;;;7.38;5.45;;;;;;;-145.69;56.23;51775.06;5135417;28;20205;-81
2023/09/06 01:57:11;;;;;;;11.23;5.25;;;;;;;-145.69;56.76;51796.84;5135569;27;20291;-81
2023/09/06 01:59:39;;;;;;;9.50;5.45;;;;;;;-145.69;56.92;51777.03;5135439;27;20551;-81
2023/09/06 02:02:05;;;;;;;10.55;5.45;;;;;;;-145.69;56.98;51767.16;5134497;27;20231;-81
2023/09/06 02:04:32;;;;;;;12.40;5.30;;;;;;;-145.69;56.45;51775.06;5135000;28;20193;-82
2023/09/06 02:06:58;;;;;;;9.48;5.57;;;;;;;-145.69;55.91;51779.03;5135239;27;20204;-81
2023/09/06 02:09:26;;;;;;;9.90;5.70;;;;;;;-145.69;55.73;51794.88;5135407;28;20208;-80
2023/09/06 02:11:55;;;;;;;9.23;5.35;;;;;;;-145.69;55.42;51802.78;5135320;27;20197;-80
2023/09/06 02:14:22;;;;;;;8.98;5.15;;;;;;;-145.69;55.62;51781.00;5135370;27;20192;-80
2023/09/06 02:16:50;;;;;;;6.18;4.50;;;;;;;-145.69;55.18;51751.31;5135102;27;20260;-81
2023/09/06 02:19:17;;;;;;;8.90;5.68;;;;;;;-145.69;55.36;51757.25;5135085;27;20240;-80
2023/09/06 02:21:44;;;;;;;7.07;4.93;;;;;;;-145.69;54.94;51790.91;5134613;27;20221;-80
2023/09/06 02:24:10;;;;;;;10.13;4.82;;;;;;;-145.69;55.46;51794.88;5134755;28;20232;-80
2023/09/06 02:26:37;;;;;;;8.23;4.45;;;;;;;-145.69;55.00;51810.72;5134898;28;20204;-80
2023/09/06 02:29:05;;;;;;;8.30;4.93;;;;;;;-145.69;55.09;51788.94;5134555;27;20200;-80
2023/09/06 02:31:32;;;;;;;7.73;4.73;;;;;;;-145.69;55.19;51779.03;5134916;27;20203;-80
2023/09/06 02:34:00;;;;;;;6.55;4.20;;;;;;;-145.69;54.83;51818.63;5134562;27;20240;-80
2023/09/06 02:36:27;;;;;;;8.37;4.87;;;;;;;-145.69;54.97;51784.97;5131569;27;20732;-80
2023/09/06 02:38:53;;;;;;;6.40;4.32;;;;;;;-145.69;55.06;51836.44;5114368;28;20208;-81
2023/09/06 02:41:20;;;;;;;9.90;5.10;;;;;;;-145.69;55.01;51830.50;5114216;28;20197;-80
2023/09/06 02:43:47;;;;;;;8.07;5.10;;;;;;;-145.69;55.10;51824.56;5077939;28;1039488;-80
2023/09/06 02:46:15;;;;;;;6.93;4.33;;;;;;;-145.69;54.99;51822.59;5115263;28;20221;-80
2023/09/06 02:48:46;;;;;;;6.53;4.50;;;;;;;-145.69;55.12;51802.78;5122335;27;20193;-80
2023/09/06 02:51:14;;;;;;;9.30;4.72;;;;;;;-145.69;55.01;51812.69;5135659;27;20247;-81
2023/09/06 02:53:45;;;;;;;6.57;4.47;;;;;;;-145.69;54.97;51786.94;5135171;27;20667;-81
2023/09/06 02:56:14;;;;;;;6.33;4.43;;;;;;;-145.69;55.35;51810.72;5135544;27;20197;-79
2023/09/06 02:58:42;;;;;;;7.40;4.47;;;;;;;-145.69;54.90;51798.81;5135476;27;20197;-80
2023/09/06 03:01:19;;;;;;;8.05;4.65;;;;;;;-145.69;55.01;51786.94;5134983;27;20192;-80
2023/09/06 03:03:53;;;;;;;7.93;4.70;;;;;;;-145.69;55.44;51826.56;5135540;27;20265;-80
2023/09/06 03:06:32;;;;;;;8.33;4.87;;;;;;;-145.69;55.35;51775.06;5135340;27;20208;-80
2023/09/06 03:09:00;;;;;;;8.93;5.20;;;;;;;-145.69;56.22;51798.81;5135098;27;20196;-80
2023/09/06 03:11:26;;;;;;;8.27;5.13;;;;;;;-145.69;55.35;51798.81;5135327;27;20196;-80
2023/09/06 03:13:55;;;;;;;8.17;4.60;;;;;;;-145.69;55.22;51814.66;5133935;27;20193;-80
2023/09/06 03:16:22;;;;;;;7.97;4.73;;;;;;;-145.69;55.91;51840.41;5134942;27;20738;-80
2023/09/06 03:18:51;;;;;;;8.73;5.40;;;;;;;-145.69;56.47;51810.72;5135073;27;20555;-80
2023/09/06 03:21:18;;;;;;;10.17;4.90;;;;;;;-145.69;55.94;51783.00;5134529;27;20215;-80
2023/09/06 03:23:46;;;;;;;9.30;5.00;;;;;;;-145.69;55.47;51818.63;5134422;27;20251;-80
2023/09/06 03:26:13;;;;;;;6.23;4.40;;;;;;;-145.69;55.44;51779.03;5133529;27;20197;-80
2023/09/06 03:28:40;;;;;;;7.33;4.57;;;;;;;-145.69;55.28;51808.72;5134605;27;20214;-80
2023/09/06 03:31:09;;;;;;;7.67;4.70;;;;;;;-145.69;55.36;51822.59;5134961;27;20204;-81
2023/09/06 03:33:36;;;;;;;6.47;4.40;;;;;;;-145.69;55.53;51824.56;5134822;27;20754;-81
2023/09/06 03:36:07;;;;;;;11.20;4.63;;;;;;;-145.69;55.72;51816.66;5134778;27;20593;-80
2023/09/06 03:38:34;;;;;;;9.13;4.77;;;;;;;-145.69;55.19;51796.84;5134635;27;20279;-81
2023/09/06 03:41:03;;;;;;;7.57;4.13;;;;;;;-145.69;55.14;51796.84;5134507;27;20201;-80
2023/09/06 03:43:32;;;;;;;9.15;5.40;;;;;;;-145.69;56.58;51826.56;5132476;27;20458;-80
2023/09/06 03:45:59;;;;;;;8.60;4.80;;;;;;;-145.69;55.47;51818.63;5134636;27;20204;-81
2023/09/06 03:48:27;;;;;;;7.97;5.10;;;;;;;-145.69;55.36;51810.72;5134272;27;20197;-81
2023/09/06 03:50:56;;;;;;;9.37;4.80;;;;;;;-145.69;55.81;51812.69;5133905;27;20196;-80
2023/09/06 03:53:25;;;;;;;8.47;5.17;;;;;;;-145.69;56.47;51840.41;5133115;27;20200;-81
2023/09/06 03:55:52;;;;;;;7.07;4.70;;;;;;;-145.69;55.97;51850.31;5134279;27;20207;-81
2023/09/06 03:58:20;;;;;;;8.63;5.30;;;;;;;-145.69;56.09;51814.66;5134270;27;20540;-81
2023/09/06 04:00:47;;;;;;;12.20;5.40;;;;;;;-145.69;57.26;51777.03;5133818;27;20193;-81
2023/09/06 04:03:14;;;;;;;9.50;5.10;;;;;;;-145.69;56.79;51806.75;5130565;27;20218;-82
2023/09/06 04:05:41;;;;;;;8.47;5.40;;;;;;;-145.69;56.92;51794.88;5133532;27;20193;-82
2023/09/06 04:08:09;;;;;;;10.80;5.23;;;;;;;-145.69;56.68;51838.44;5133955;27;20205;-81
2023/09/06 04:10:36;;;;;;;7.77;5.07;;;;;;;-145.69;56.70;51834.47;5134231;27;20207;-82
2023/09/06 04:13:03;;;;;;;9.50;5.43;;;;;;;-145.69;56.19;51830.50;5134229;27;20199;-81
2023/09/06 04:15:34;;;;;;;6.60;4.50;;;;;;;-145.69;55.79;51794.88;5133754;27;20220;-81
2023/09/06 04:18:02;;;;;;;8.67;5.37;;;;;;;-145.69;56.22;51842.38;5134214;27;20231;-81
2023/09/06 04:20:31;;;;;;;8.43;4.80;;;;;;;-145.69;55.82;51828.53;5133782;27;20551;-81
2023/09/06 04:22:59;;;;;;;9.07;5.03;;;;;;;-145.69;55.91;51826.56;5134102;27;20225;-81
2023/09/06 04:25:26;;;;;;;8.37;4.83;;;;;;;-145.69;55.73;51846.34;5133830;27;20317;-81
2023/09/06 04:27:54;;;;;;;10.70;4.73;;;;;;;-145.69;56.15;51808.72;5133740;27;20245;-81
2023/09/06 04:30:23;;;;;;;8.57;5.03;;;;;;;-145.69;56.55;51828.53;5130345;27;20198;-81
2023/09/06 04:32:51;;;;;;;9.30;5.60;;;;;;;-145.69;57.93;51814.66;5132180;27;20197;-81
2023/09/06 04:35:18;;;;;;;10.20;5.27;;;;;;;-145.69;57.26;51800.81;5133861;27;20201;-81
2023/09/06 04:37:45;;;;;;;9.53;5.90;;;;;;;-145.69;57.33;51814.66;5133549;27;20195;-81
2023/09/06 04:40:13;;;;;;;7.57;5.17;;;;;;;-145.69;56.85;51822.59;5133803;28;20632;-82
2023/09/06 04:42:40;;;;;;;10.03;6.00;;;;;;;-145.69;56.61;51852.28;5133289;28;20220;-82
2023/09/06 04:45:07;;;;;;;14.43;6.07;;;;;;;-145.69;57.23;51826.56;5133997;27;20192;-81
2023/09/06 04:47:34;;;;;;;10.23;6.50;;;;;;;-145.69;57.36;51842.38;5133127;27;20200;-81
2023/09/06 04:50:04;;;;;;;11.23;6.50;;;;;;;-145.69;57.70;51816.66;5133855;27;20675;-81
2023/09/06 04:52:29;;;;;;;11.67;6.00;;;;;;;-145.69;58.77;51844.38;5133467;27;20196;-82
2023/09/06 04:54:57;;;;;;;13.03;6.20;;;;;;;-145.69;58.33;51838.44;5133864;28;20203;-81
2023/09/06 04:57:25;;;;;;;12.77;7.00;;;;;;;-145.69;58.14;51818.63;5132164;27;20192;-80
2023/09/06 04:59:53;;;;;;;12.50;6.57;;;;;;;-145.69;58.26;51826.56;5133364;28;20193;-81
2023/09/06 05:02:20;;;;;;;10.93;6.27;;;;;;;-145.69;57.88;51854.28;5132606;28;20197;-81
2023/09/06 05:04:46;;;;;;;9.52;5.90;;;;;;;-145.69;57.10;51810.72;5132375;28;20228;-81
2023/09/06 05:07:14;;;;;;;11.97;5.70;;;;;;;-145.69;57.10;51828.53;5133770;28;20205;-80
2023/09/06 05:09:40;;;;;;;9.30;5.50;;;;;;;-145.69;57.17;51816.66;5133219;27;20678;-81
2023/09/06 05:12:07;;;;;;;7.50;4.80;;;;;;;-145.69;57.20;51852.28;5133535;28;20219;-81
2023/09/06 05:14:34;;;;;;;8.93;5.57;;;;;;;-145.69;57.19;51818.63;5133180;27;20196;-80
2023/09/06 05:17:00;;;;;;;11.57;5.97;;;;;;;-145.69;57.69;51842.38;5133281;27;20220;-80
2023/09/06 05:19:27;;;;;;;10.30;6.07;;;;;;;-145.69;57.95;51858.22;5133188;27;20191;-81
2023/09/06 05:21:54;;;;;;;8.53;5.53;;;;;;;-145.69;57.55;51846.34;5133323;27;20544;-81
2023/09/06 05:24:22;;;;;;;8.57;6.03;;;;;;;-145.69;58.62;51814.66;5133294;27;20220;-80
2023/09/06 05:26:49;;;;;;;11.60;6.40;;;;;;;-145.69;58.75;51836.44;5133353;28;20211;-80
2023/09/06 05:29:17;;;;;;;11.77;6.70;;;;;;;-145.69;58.73;51779.03;5132698;28;20230;-81
2023/09/06 05:31:44;;;;;;;11.67;7.30;;;;;;;-145.69;58.61;51846.34;5133347;28;20238;-81
2023/09/06 05:34:10;;;;;;;12.13;6.30;;;;;;;-145.69;58.07;51818.63;5133346;28;20192;-80
2023/09/06 05:36:37;;;;;;;12.33;7.20;;;;;;;-145.69;58.27;51840.41;5135284;27;20674;-81
2023/09/06 05:39:06;;;;;;;11.40;6.60;;;;;;;-145.69;58.63;51842.38;5136959;27;20197;-81
2023/09/06 05:41:34;;;;;;;10.67;6.90;;;;;;;-145.69;58.76;51818.63;5136580;27;20238;-81
2023/09/06 05:44:00;;;;;;;9.23;6.37;;;;;;;-145.69;57.96;51832.50;5136718;27;20235;-80
2023/09/06 05:46:30;;;;;;;11.20;6.20;;;;;;;-145.69;57.93;51850.31;5136931;27;20258;-80
2023/09/06 05:48:57;;;;;;;12.20;6.27;;;;;;;-145.69;57.96;51862.19;5136887;27;20193;-81
2023/09/06 05:51:24;;;;;;;10.57;5.80;;;;;;;-145.69;57.72;51822.59;5135626;27;20228;-80
2023/09/06 05:53:50;;;;;;;10.80;5.00;;;;;;;-145.69;57.79;51874.06;5136643;27;20555;-80
2023/09/06 05:56:17;;;;;;;9.33;5.43;;;;;;;-145.69;57.88;51822.59;5136586;27;20201;-81
2023/09/06 05:58:46;;;;;;;12.70;5.93;;;;;;;-145.69;58.13;51818.63;5136294;27;20596;-81
2023/09/06 06:01:12;;;;;;;12.23;6.47;;;;;;;-145.69;58.81;51822.59;5135712;27;20279;-80
2023/09/06 06:03:38;;;;;;;11.93;6.60;;;;;;;-145.69;58.87;51844.38;5136394;27;20322;-79
2023/09/06 06:06:10;;;;;;;12.80;6.63;;;;;;;-145.69;58.30;51826.56;5136455;27;20207;-80
2023/09/06 06:08:37;;;;;;;10.10;6.10;;;;;;;-145.69;58.61;51854.28;5136331;27;20287;-80
2023/09/06 06:11:03;;;;;;;12.40;7.40;;;;;;;-145.69;58.69;51842.38;5135694;27;20647;-80
2023/09/06 06:13:30;;;;;;;8.57;6.15;;;;;;;-145.69;58.56;51830.50;5136354;27;20212;-81
2023/09/06 06:15:58;;;;;;;8.77;6.18;;;;;;;-145.69;58.21;51826.56;5136308;27;20219;-81
2023/09/06 06:18:26;;;;;;;9.40;5.83;;;;;;;-145.69;58.24;51816.66;5136210;27;20207;-80
2023/09/06 06:20:52;;;;;;;9.80;5.97;;;;;;;-145.69;58.38;51814.66;5136211;27;20246;-80
2023/09/06 06:23:19;;;;;;;9.57;6.50;;;;;;;-145.69;58.53;51850.31;5135833;27;20199;-80
2023/09/06 06:25:45;;;;;;;7.90;5.87;;;;;;;-145.69;58.41;51781.00;5136326;27;20193;-80
2023/09/06 06:28:12;;;;;;;10.33;6.47;;;;;;;-145.69;58.85;51800.81;5124287;27;20198;-80
2023/09/06 06:30:39;;;;;;;11.40;6.57;;;;;;;-145.69;58.68;51806.75;5126623;27;20239;-80
2023/09/06 06:33:07;;;;;;;12.32;7.10;;;;;;;-145.69;58.58;51818.63;5135643;27;20554;-81
2023/09/06 06:35:33;;;;;;;9.55;6.22;;;;;;;-145.69;58.68;51800.81;5135998;27;20211;-81
2023/09/06 06:38:01;;;;;;;11.18;6.60;;;;;;;-145.69;58.75;51826.56;5135740;27;20563;-81
2023/09/06 06:40:29;;;;;;;12.40;6.60;;;;;;;-145.69;58.51;51838.44;5136061;27;20236;-81
2023/09/06 06:42:56;;;;;;;9.95;6.07;;;;;;;-145.69;58.64;51812.69;5135793;27;20288;-81
2023/09/06 06:45:22;;;;;;;9.20;6.15;;;;;;;-145.69;58.75;51784.97;5134045;27;20586;-80
2023/09/06 06:47:49;;;;;;;10.98;7.43;;;;;;;-145.69;58.58;51808.72;5134236;27;20578;-80
2023/09/06 06:50:17;;;;;;;11.32;6.95;;;;;;;-145.69;58.22;51814.66;5135553;27;20204;-80
2023/09/06 06:52:44;;;;;;;11.77;6.80;;;;;;;-145.69;57.98;51798.81;5135607;27;20215;-81
2023/09/06 06:55:11;;;;;;;10.68;6.60;;;;;;;-145.69;57.88;51763.19;5135416;27;20196;-80
2023/09/06 06:57:37;;;;;;;11.60;6.57;;;;;;;-145.69;57.86;51783.00;5135503;27;20208;-80
2023/09/06 07:00:11;;;;;;;10.77;6.82;;;;;;;-145.69;57.88;51800.81;5134800;27;20294;-81
2023/09/06 07:02:37;;;;;;;10.30;6.90;;;;;;;-145.69;58.15;51810.72;5135254;27;20247;-80
2023/09/06 07:05:04;;;;;;;9.27;6.05;;;;;;;-145.69;58.05;51790.91;5134965;27;20226;-80
2023/09/06 07:07:32;;;;;;;11.57;6.95;;;;;;;-145.69;58.11;51798.81;5135475;27;20197;-80
2023/09/06 07:09:58;;;;;;;12.60;6.95;;;;;;;-145.69;58.40;51790.91;5134619;27;20204;-80
2023/09/06 07:12:25;;;;;;;11.93;7.00;;;;;;;-145.69;58.15;51814.66;5135323;27;20197;-80
2023/09/06 07:14:52;;;;;;;11.05;6.55;;;;;;;-145.69;58.19;51790.91;5135200;27;20201;-81
2023/09/06 07:17:18;;;;;;;9.88;7.10;;;;;;;-145.69;58.07;51781.00;5134958;27;20197;-81
2023/09/06 07:19:45;;;;;;;10.43;6.35;;;;;;;-145.69;57.51;51784.97;5134738;27;20208;-81
2023/09/06 07:22:11;;;;;;;9.73;6.30;;;;;;;-145.69;57.82;51806.75;5135109;27;20201;-81
2023/09/06 07:24:39;;;;;;;9.70;5.32;;;;;;;-145.69;57.63;51784.97;5134992;27;20307;-81
2023/09/06 07:27:06;;;;;;;8.85;6.18;;;;;;;-145.69;57.28;51783.00;5134942;27;20558;-81
2023/09/06 07:29:32;;;;;;;13.00;6.30;;;;;;;-145.69;56.95;51783.00;5134766;27;20215;-81
2023/09/06 07:31:59;;;;;;;13.65;6.32;;;;;;;-145.69;56.61;51747.34;5134154;27;20834;-82
2023/09/06 07:34:25;;;;;;;8.45;5.95;;;;;;;-145.69;56.35;51757.25;5134551;27;20555;-82
2023/09/06 07:36:52;;;;;;;8.05;5.45;;;;;;;-145.69;56.19;51747.34;5134967;27;20200;-81
2023/09/06 07:39:21;;;;;;;10.43;5.68;;;;;;;-145.69;55.51;51755.25;5133452;27;20200;-81
2023/09/06 07:41:51;;;;;;;9.98;6.32;;;;;;;-145.69;55.76;51755.25;5134620;27;20197;-81
2023/09/06 07:44:18;;;;;;;9.38;5.57;;;;;;;-145.69;54.44;51761.22;5092033;28;20228;-81
2023/09/06 07:46:48;;;;;;;7.13;5.18;;;;;;;-145.69;54.53;51763.19;5093676;27;20209;-80
2023/09/06 07:49:15;;;;;;;7.07;5.00;;;;;;;-145.69;55.29;51767.16;5093281;28;20212;-81
2023/09/06 07:51:41;;;;;;;7.45;5.07;;;;;;;-145.69;54.52;51755.25;5093150;28;20190;-81
2023/09/06 07:54:07;;;;;;;9.18;4.93;;;;;;;-145.69;54.89;51765.16;5093034;28;20213;-81
2023/09/06 07:56:34;;;;;;;9.20;5.10;;;;;;;-145.69;54.53;51759.22;5093357;28;20205;-79
2023/09/06 07:59:02;;;;;;;8.82;5.50;;;;;;;-145.69;52.37;51781.00;5092873;28;20538;-80
2023/09/06 08:01:28;;;;;;;7.40;4.93;;;;;;;-145.69;52.54;51733.50;5093096;28;20206;-80
2023/09/06 08:03:55;;;;;;;7.70;4.85;;;;;;;-145.69;53.77;51759.22;5093267;28;20202;-79
2023/09/06 08:06:22;;;;;;;8.27;4.78;;;;;;;-145.69;53.34;51703.78;5093411;28;20202;-79
2023/09/06 08:08:48;;;;;;;8.02;5.10;;;;;;;-145.69;52.69;51755.25;5093052;28;20197;-79
2023/09/06 08:11:17;;;;;;;6.63;4.20;;;;;;;-145.69;52.78;51735.47;5093347;28;20201;-79
2023/09/06 08:13:44;;;;;;;7.13;4.63;;;;;;;-145.69;51.97;51755.25;5092601;28;20194;-79
2023/09/06 08:16:12;;;;;;;7.20;4.78;;;;;;;-145.69;51.38;51735.47;5093393;28;20206;-79
2023/09/06 08:18:38;;;;;;;6.30;4.63;;;;;;;-145.69;51.97;51741.41;5093216;28;20198;-79
2023/09/06 08:21:04;;;;;;;7.45;4.25;;;;;;;-145.69;52.03;51727.53;5093297;28;20209;-79
2023/09/06 08:23:31;;;;;;;6.75;4.68;;;;;;;-145.69;51.30;51739.44;5093178;28;20194;-79
2023/09/06 08:25:58;;;;;;;5.63;4.22;;;;;;;-145.69;50.99;51733.50;5089371;28;20225;-79
2023/09/06 08:28:24;;;;;;;8.18;4.47;;;;;;;-145.69;50.53;51745.38;5072783;28;20198;-79
2023/09/06 08:30:50;;;;;;;6.93;4.20;;;;;;;-145.69;49.78;51713.69;5090932;28;20530;-80
2023/09/06 08:33:18;;;;;;;6.00;4.03;;;;;;;-145.69;49.51;51741.41;5092484;28;20190;-80
2023/09/06 08:35:45;;;;;;;7.03;3.90;;;;;;;-145.69;49.44;51697.84;5092712;28;20216;-77
2023/09/06 08:38:11;;;;;;;6.68;4.45;;;;;;;-145.69;48.16;51701.81;5092527;28;20194;-78
2023/09/06 08:40:39;;;;;;;8.88;3.80;;;;;;;-145.69;46.94;51699.81;5090074;28;20201;-81
2023/09/06 08:43:06;;;;;;;7.90;4.03;;;;;;;-145.69;46.82;51701.81;5093282;28;20237;-81
2023/09/06 08:45:34;;;;;;;7.32;3.53;;;;;;;-145.69;45.80;51707.75;5113830;27;20225;-79
2023/09/06 08:48:02;;;;;;;5.90;3.67;;;;;;;-145.69;45.39;51723.59;5133365;27;20647;-81
2023/09/06 08:50:32;;;;;;;4.88;3.42;;;;;;;-145.69;44.92;51680.03;5132930;28;20211;-80
2023/09/06 08:53:00;;;;;;;6.78;3.90;;;;;;;-145.69;44.78;51715.66;5113128;28;20197;-80
2023/09/06 08:55:27;;;;;;;5.43;3.03;;;;;;;-145.69;45.00;51707.75;5128367;27;20192;-80
2023/09/06 08:57:57;;;;;;;6.05;3.85;;;;;;;-145.69;45.50;51695.88;5133450;27;20196;-82
2023/09/06 09:00:24;;;;;;;6.22;3.65;;;;;;;-145.69;45.59;51687.94;5132885;27;20204;-81
2023/09/06 09:02:50;;;;;;;10.40;3.97;;;;;;;-145.69;45.69;51703.78;5132552;28;20200;-80
2023/09/06 09:05:17;;;;;;;6.68;3.72;;;;;;;-145.69;45.54;51691.91;5132725;27;20575;-80
2023/09/06 09:07:45;;;;;;;6.35;4.03;;;;;;;-145.69;45.93;51713.69;5133039;27;20201;-82
2023/09/06 09:10:13;;;;;;;7.45;4.03;;;;;;;-145.69;45.70;51707.75;5132632;27;20193;-81
2023/09/06 09:12:40;;;;;;;8.75;3.70;;;;;;;-145.69;45.41;51683.97;5137060;27;20189;-82
2023/09/06 09:15:08;;;;;;;5.60;3.70;;;;;;;-145.69;45.11;51697.84;5136762;27;20650;-81
2023/09/06 09:17:37;;;;;;;6.28;4.30;;;;;;;-145.69;45.26;51703.78;5134481;27;20200;-81
2023/09/06 09:20:05;;;;;;;6.88;4.15;;;;;;;-145.69;45.76;51701.81;5137061;27;20197;-81
2023/09/06 09:22:34;;;;;;;5.78;3.70;;;;;;;-145.69;44.85;51691.91;5136425;27;20193;-81
2023/09/06 09:25:04;;;;;;;6.30;3.60;;;;;;;-145.69;44.99;51683.97;5137300;27;20265;-81
2023/09/06 09:27:33;;;;;;;10.65;4.13;;;;;;;-145.69;45.19;51685.97;5136941;27;20667;-81
2023/09/06 09:30:01;;;;;;;6.80;3.92;;;;;;;-145.69;44.86;51695.88;5146879;27;20196;-81
2023/09/06 09:32:27;;;;;;;9.18;4.43;;;;;;;-145.69;44.88;51697.84;5137330;27;20197;-82
2023/09/06 09:34:54;;;;;;;5.10;3.38;;;;;;;-145.69;45.51;51703.78;5136470;27;20771;-82
2023/09/06 09:37:21;;;;;;;8.48;4.22;;;;;;;-145.69;45.05;51695.88;5136993;27;20200;-82
2023/09/06 09:39:47;;;;;;;7.15;4.05;;;;;;;-145.69;44.66;51719.63;5136434;27;20197;-81
2023/09/06 09:42:15;;;;;;;9.82;3.78;;;;;;;-145.69;45.10;51717.66;5136347;27;20224;-81
2023/09/06 09:44:42;;;;;;;8.10;4.07;;;;;;;-145.69;45.04;51691.91;5136706;27;20224;-80
2023/09/06 09:47:13;;;;;;;5.18;3.83;;;;;;;-145.69;44.52;51691.91;5135950;27;20208;-81
2023/09/06 09:49:41;;;;;;;4.75;3.50;;;;;;;-145.69;44.23;51709.72;5136367;27;20208;-82
2023/09/06 09:52:13;;;;;;;7.63;3.60;;;;;;;-145.69;43.51;51705.75;5133836;27;20536;-81
2023/09/06 09:54:42;;;;;;;5.00;3.42;;;;;;;-145.69;43.59;51668.16;5136617;27;20197;-81
2023/09/06 09:57:11;;;;;;;6.30;3.30;;;;;;;-145.69;44.26;51695.88;5118654;27;20253;-83
2023/09/06 09:59:40;;;;;;;6.18;3.58;;;;;;;-145.69;42.40;51699.81;5136549;27;20189;-80
2023/09/06 10:02:15;;;;;;;6.80;3.85;;;;;;;-145.69;43.66;51664.19;5135974;27;20193;-82
2023/09/06 10:04:43;;;;;;;7.38;3.88;;;;;;;-145.69;43.51;51683.97;5135901;27;20200;-82
2023/09/06 10:07:13;;;;;;;7.47;3.85;;;;;;;-145.69;43.68;51697.84;5135769;27;20615;-81
2023/09/06 10:09:41;;;;;;;6.10;3.60;;;;;;;-145.69;43.17;51674.09;5136561;27;20198;-81
2023/09/06 10:12:10;;;;;;;5.93;3.90;;;;;;;-145.69;42.68;51660.22;5136298;27;20678;-83
2023/09/06 10:14:41;;;;;;;6.53;3.40;;;;;;;-145.69;42.32;51674.09;5139842;27;20204;-83
2023/09/06 10:17:08;;;;;;;6.57;3.65;;;;;;;-145.69;42.54;51656.25;5138286;27;20257;-81
2023/09/06 10:19:35;;;;;;;6.70;3.88;;;;;;;-145.69;42.42;51668.16;5136049;27;20189;-81
2023/09/06 10:22:04;;;;;;;5.60;3.53;;;;;;;-145.69;41.42;51644.38;5136064;27;20203;-81
2023/09/06 10:24:34;;;;;;;5.93;3.97;;;;;;;-145.69;41.53;51658.25;5129156;27;20201;-80
2023/09/06 10:27:02;;;;;;;5.30;3.58;;;;;;;-145.69;41.89;51656.25;5135359;27;20201;-82
2023/09/06 10:29:30;;;;;;;8.32;3.78;;;;;;;-145.69;41.46;51652.31;5136515;27;20249;-82
2023/09/06 10:32:03;;;;;;;5.65;3.55;;;;;;;-145.69;42.19;51682.00;5136215;27;20197;-82
2023/09/06 10:34:32;;;;;;;6.30;3.72;;;;;;;-145.69;41.69;51687.94;5135907;27;20659;-82
2023/09/06 10:37:00;;;;;;;6.93;3.47;;;;;;;-145.69;41.53;51658.25;5136239;27;20559;-82
2023/09/06 10:39:28;;;;;;;5.00;3.72;;;;;;;-145.69;41.68;51656.25;5136402;27;20197;-80
2023/09/06 10:42:28;;;;;;;5.40;3.60;;;;;;;-145.69;40.59;51652.31;5136063;27;20192;-82
2023/09/06 10:45:15;;;;;;;5.13;3.65;;;;;;;-145.69;40.72;51648.34;5139957;27;20262;-80
2023/09/06 10:47:43;;;;;;;6.88;3.35;;;;;;;-145.69;41.46;51660.22;5144617;27;20207;-81
2023/09/06 10:50:18;;;;;;;6.88;3.72;;;;;;;-145.69;41.21;51658.25;5142003;27;20192;-80
2023/09/06 10:52:48;;;;;;;5.32;3.78;;;;;;;-145.69;41.36;51656.25;5135315;27;20264;-81
2023/09/06 10:55:17;;;;;;;5.75;4.05;;;;;;;-145.69;41.26;51656.25;5135552;27;20559;-80
2023/09/06 10:58:06;;;;;;;5.13;3.50;;;;;;;-145.69;40.76;51654.28;5135589;27;20196;-82
2023/09/06 11:00:36;;;;;;;7.47;4.10;;;;;;;-145.69;41.53;51664.19;5135461;27;20197;-82
2023/09/06 11:03:21;;;;;;;7.47;3.72;;;;;;;-145.69;41.32;51614.69;5135759;27;20193;-80
2023/09/06 11:05:56;;;;;;;6.20;3.70;;;;;;;-145.69;40.67;51634.47;5134037;27;20220;-81
2023/09/06 11:08:31;;;;;;;5.43;3.38;;;;;;;-145.69;40.53;51640.44;5134513;27;20638;-81
2023/09/06 11:11:02;;;;;;;5.47;3.60;;;;;;;-145.69;40.42;51622.59;5134725;27;20278;-81
2023/09/06 11:13:32;;;;;;;8.38;3.55;;;;;;;-145.69;40.52;51624.59;5135406;27;20197;-81
2023/09/06 11:15:59;;;;;;;4.35;3.25;;;;;;;-145.69;40.53;51662.22;5147326;27;20200;-80
2023/09/06 11:18:28;;;;;;;5.57;4.00;;;;;;;-145.69;40.56;51648.34;5155929;27;20192;-81